Jrt Moran — WDI3936 — position and weather

sailwx.info

Track history (hours):
 
Tides and Currents Weather Stations Pressure Air Temp Water Temp Dewpoint Dewpoint Depression Visibility Wind Speed Wind Dir Waves Ship Positions

Jrt Moran

Owner: Moran Towing Corporation, New Canaan, CT. More information available from US FCC via Universal Licensing System and Coast Guard Vessel Documentation Center.

Last reported at 2017-Oct-17 10:01 UTC. Time now 2017-Oct-17 10:09 UTC.
Position N 40°36' W 074°03'.

Length 28 m; draft 4.6 m.

Type: Tug. MMSI: 338073000.

Date/timePositionNaut miles runAvg speedWind from/ knotsBaromVisibWave heightAir tempDewpointWater temp
2017-Oct-17 10:01N 40°36' W 074°03'3 6.8
2017-Oct-17 09:30N 40°39' W 074°06'1 2.7
2017-Oct-17 08:59N 40°38' W 074°08'0 0.0
2017-Oct-17 08:29N 40°38' W 074°08'0 0.0
2017-Oct-17 07:59N 40°38' W 074°08'0 0.0
2017-Oct-17 07:29N 40°38' W 074°08'0 0.0
2017-Oct-17 06:59N 40°38' W 074°08'0 0.0
2017-Oct-17 06:17N 40°38' W 074°08'0 0.0
2017-Oct-17 05:59N 40°38' W 074°08'0 0.0
2017-Oct-17 05:29N 40°38' W 074°08'0 0.0
2017-Oct-17 04:59N 40°38' W 074°08'0 0.0
2017-Oct-17 04:29N 40°38' W 074°08'0 0.0
2017-Oct-17 03:59N 40°38' W 074°08'0 0.0
2017-Oct-17 03:14N 40°38' W 074°08'0 0.0
2017-Oct-17 02:59N 40°38' W 074°08'0 0.0
2017-Oct-17 02:29N 40°38' W 074°08'0 0.0
2017-Oct-17 01:59N 40°38' W 074°08'0 0.0
2017-Oct-17 01:23N 40°38' W 074°08'0 0.0
2017-Oct-17 00:59N 40°38' W 074°08'0 0.0
2017-Oct-17 00:30N 40°38' W 074°08'1 0.4
2017-Oct-16 22:14N 40°39' W 074°07'1 3.9
2017-Oct-16 21:59N 40°38' W 074°08'0 0.0
2017-Oct-16 21:23N 40°38' W 074°08'0 0.0
2017-Oct-16 20:59N 40°38' W 074°08'0 0.0
2017-Oct-16 18:05N 40°38' W 074°08'0 0.0
2017-Oct-16 17:44N 40°38' W 074°08'0 1.3
2017-Oct-16 17:30N 40°39' W 074°08'1 2.8
2017-Oct-16 17:00N 40°40' W 074°09'1 1.0
2017-Oct-16 16:30N 40°39' W 074°09'2 3.5
2017-Oct-16 16:00N 40°39' W 074°06'2 5.0
2017-Oct-16 15:31N 40°38' W 074°03'2 4.5
2017-Oct-16 15:00N 40°36' W 074°03'4 4.4
2017-Oct-16 13:59N 40°38' W 074°08'0 0.0
2017-Oct-16 13:29N 40°38' W 074°08'0 0.0
2017-Oct-16 12:59N 40°39' W 074°08'1 1.5
2017-Oct-16 12:30N 40°39' W 074°09'2 4.9
2017-Oct-16 12:00N 40°41' W 074°09'1 1.6
2017-Oct-16 11:30N 40°40' W 074°08'2 3.4
2017-Oct-16 10:59N 40°39' W 074°08'2 5.1
2017-Oct-16 10:30N 40°39' W 074°05'3 6.3
2017-Oct-16 10:00N 40°36' W 074°02'3 5.4
2017-Oct-16 09:30N 40°39' W 074°03'1 2.4
2017-Oct-16 09:00N 40°40' W 074°04'0 0.0
2017-Oct-16 08:30N 40°40' W 074°04'0 0.0
2017-Oct-16 08:00N 40°40' W 074°04'0 0.0
2017-Oct-16 07:30N 40°40' W 074°04'0 0.0
2017-Oct-16 07:00N 40°40' W 074°04'0 0.0
2017-Oct-16 06:30N 40°40' W 074°04'0 0.0
2017-Oct-16 06:00N 40°40' W 074°04'0 0.0
2017-Oct-16 05:30N 40°40' W 074°04'0 0.0
2017-Oct-16 05:00N 40°40' W 074°04'1 1.7
2017-Oct-16 04:30N 40°40' W 074°03'713.0
2017-Oct-16 04:00N 40°46' W 074°00'0 0.2
2017-Oct-16 03:30N 40°46' W 074°00'0 0.1
2017-Oct-16 03:00N 40°46' W 073°60'0 0.2
2017-Oct-16 02:30N 40°46' W 073°60'1 1.2
2017-Oct-16 02:00N 40°46' W 074°01'612.0
2017-Oct-16 01:30N 40°40' W 074°03'4 1.0
2017-Oct-15 21:40N 40°38' W 074°08'0 1.6
2017-Oct-15 21:30N 40°39' W 074°08'2 4.3
2017-Oct-15 21:00N 40°41' W 074°09'1 1.3
2017-Oct-15 20:30N 40°40' W 074°08'2 1.1
2017-Oct-15 19:05N 40°38' W 074°08'0 0.0
2017-Oct-15 18:59N 40°38' W 074°08'0 0.0
2017-Oct-15 18:14N 40°38' W 074°08'0 0.0
2017-Oct-15 17:50N 40°38' W 074°08'0 0.0
2017-Oct-15 16:17N 40°38' W 074°08'0 0.0
2017-Oct-15 15:44N 40°38' W 074°08'0 0.0
2017-Oct-15 15:29N 40°38' W 074°08'0 0.0
2017-Oct-15 14:59N 40°38' W 074°08'0 0.0
2017-Oct-15 13:59N 40°38' W 074°08'0 0.0
2017-Oct-15 13:29N 40°38' W 074°08'0 0.0
2017-Oct-15 12:59N 40°38' W 074°08'0 0.0
2017-Oct-15 12:29N 40°38' W 074°08'2 3.7
2017-Oct-15 12:01N 40°39' W 074°06'2 4.6
2017-Oct-15 11:30N 40°39' W 074°09'2 3.9
2017-Oct-15 11:00N 40°40' W 074°08'0 0.8
2017-Oct-15 10:30N 40°41' W 074°09'0 0.0
2017-Oct-15 10:00N 40°41' W 074°09'2 3.2
2017-Oct-15 09:30N 40°39' W 074°09'1 2.1
2017-Oct-15 09:00N 40°38' W 074°08'0 0.0
2017-Oct-15 08:28N 40°38' W 074°08'0 0.0
2017-Oct-15 07:57N 40°38' W 074°08'0 0.0
2017-Oct-15 07:31N 40°38' W 074°08'0 0.0
2017-Oct-15 06:57N 40°38' W 074°08'0 0.0
2017-Oct-15 06:31N 40°38' W 074°08'0 0.0
2017-Oct-15 06:00N 40°38' W 074°08'0 0.0
2017-Oct-15 05:30N 40°38' W 074°08'0 0.0
2017-Oct-15 05:00N 40°38' W 074°08'1 2.0
2017-Oct-15 04:30N 40°39' W 074°07'2 3.7
2017-Oct-15 04:00N 40°39' W 074°09'1 1.4
2017-Oct-15 03:30N 40°40' W 074°09'0 0.1
2017-Oct-15 03:00N 40°40' W 074°09'0 0.1
2017-Oct-15 02:30N 40°40' W 074°09'0 0.0
2017-Oct-15 02:00N 40°40' W 074°09'1 2.8
2017-Oct-15 01:29N 40°38' W 074°08'0 0.0
2017-Oct-14 23:49N 40°38' W 074°08'1 2.5
2017-Oct-14 23:30N 40°39' W 074°07'1 2.5
2017-Oct-14 23:00N 40°39' W 074°05'3 5.4
2017-Oct-14 22:30N 40°38' W 074°09'2 4.0
2017-Oct-14 22:00N 40°40' W 074°08'1 1.4
2017-Oct-14 21:30N 40°41' W 074°09'0 0.1
2017-Oct-14 21:00N 40°41' W 074°09'0 0.0
2017-Oct-14 20:31N 40°41' W 074°09'2 3.6
2017-Oct-14 20:00N 40°39' W 074°09'1 2.0
2017-Oct-14 19:29N 40°38' W 074°08'0 0.0
2017-Oct-14 18:59N 40°38' W 074°08'0 0.0
2017-Oct-14 18:26N 40°38' W 074°08'0 0.0
2017-Oct-14 17:56N 40°38' W 074°08'0 0.0
2017-Oct-14 17:29N 40°38' W 074°08'0 0.0
2017-Oct-14 17:00N 40°38' W 074°08'4 8.7
2017-Oct-14 16:30N 40°41' W 074°03'612.0
2017-Oct-14 16:00N 40°46' W 074°00'0 0.8
2017-Oct-14 15:30N 40°46' W 073°60'0 0.3
2017-Oct-14 15:00N 40°46' W 073°60'0 0.3
2017-Oct-14 14:30N 40°46' W 073°60'0 0.0
2017-Oct-14 14:00N 40°46' W 073°60'0 0.0
2017-Oct-14 13:30N 40°46' W 073°60'0 0.1
2017-Oct-14 13:00N 40°46' W 073°60'0 0.1
2017-Oct-14 12:30N 40°46' W 073°60'0 0.0
2017-Oct-14 12:00N 40°46' W 073°60'0 0.3
2017-Oct-14 11:30N 40°46' W 074°00'0 0.4
2017-Oct-14 11:00N 40°46' W 074°00'1 2.4
2017-Oct-14 10:30N 40°45' W 074°01'1 2.5
2017-Oct-14 10:00N 40°46' W 074°00'1 2.0
2017-Oct-14 09:30N 40°45' W 074°01'1 1.7
2017-Oct-14 09:00N 40°44' W 074°01'4 7.4
2017-Oct-14 08:30N 40°41' W 074°02'4 8.2
2017-Oct-14 08:01N 40°39' W 074°07'2 3.0
2017-Oct-14 07:29N 40°40' W 074°09'0 0.4
2017-Oct-14 07:00N 40°40' W 074°09'1 2.3
2017-Oct-14 06:28N 40°39' W 074°08'0 0.8
2017-Oct-14 05:58N 40°38' W 074°08'0 0.0
2017-Oct-14 05:28N 40°38' W 074°08'0 0.0
2017-Oct-14 04:58N 40°38' W 074°08'0 0.0
2017-Oct-14 04:25N 40°38' W 074°08'0 0.0
2017-Oct-14 03:58N 40°38' W 074°08'0 0.0
2017-Oct-14 03:28N 40°38' W 074°08'0 0.0
2017-Oct-14 02:55N 40°38' W 074°08'0 0.0
2017-Oct-14 02:28N 40°38' W 074°08'0 0.0
2017-Oct-14 01:58N 40°38' W 074°08'0 0.0
2017-Oct-14 01:28N 40°38' W 074°08'0 0.0
2017-Oct-14 00:58N 40°38' W 074°08'0 0.0
2017-Oct-14 00:28N 40°38' W 074°08'0 0.0
2017-Oct-13 23:40N 40°38' W 074°08'0 0.0
2017-Oct-13 23:22N 40°38' W 074°08'0 0.0
2017-Oct-13 22:58N 40°38' W 074°08'0 0.0
2017-Oct-13 22:25N 40°38' W 074°08'0 0.0
2017-Oct-13 21:52N 40°38' W 074°08'0 0.0
2017-Oct-13 21:25N 40°38' W 074°08'0 0.0
2017-Oct-13 20:55N 40°38' W 074°08'0 0.0
2017-Oct-13 20:25N 40°38' W 074°08'0 0.0
2017-Oct-13 19:58N 40°38' W 074°08'0 0.0
2017-Oct-13 19:25N 40°38' W 074°08'0 0.0
2017-Oct-13 18:55N 40°38' W 074°08'0 0.0
2017-Oct-13 18:28N 40°38' W 074°08'0 0.0
2017-Oct-13 17:58N 40°38' W 074°08'2 4.0
2017-Oct-13 17:30N 40°39' W 074°05'3 5.0
2017-Oct-13 17:00N 40°39' W 074°09'2 4.0
2017-Oct-13 16:30N 40°40' W 074°08'1 1.5
2017-Oct-13 16:00N 40°41' W 074°09'0 0.3
2017-Oct-13 15:30N 40°41' W 074°09'1 2.6
2017-Oct-13 15:00N 40°40' W 074°08'1 2.8
2017-Oct-13 14:30N 40°39' W 074°08'2 5.1
2017-Oct-13 14:00N 40°39' W 074°04'3 6.2
2017-Oct-13 13:30N 40°36' W 074°03'1 2.8
2017-Oct-13 13:00N 40°38' W 074°03'4 7.2
2017-Oct-13 12:29N 40°38' W 074°08'0 0.0
2017-Oct-13 12:00N 40°38' W 074°08'2 4.6
2017-Oct-13 11:30N 40°41' W 074°09'0 0.6
2017-Oct-13 11:00N 40°41' W 074°09'1 2.5
2017-Oct-13 10:30N 40°40' W 074°09'1 2.4
2017-Oct-13 10:00N 40°39' W 074°08'2 4.7
2017-Oct-13 09:30N 40°39' W 074°05'2 4.3
2017-Oct-13 09:00N 40°37' W 074°03'1 2.1
2017-Oct-13 08:30N 40°36' W 074°03'4 7.3
2017-Oct-13 08:00N 40°39' W 074°06'1 1.5
2017-Oct-13 07:16N 40°38' W 074°08'0 0.0
2017-Oct-13 06:46N 40°38' W 074°08'0 0.0
2017-Oct-13 06:24N 40°38' W 074°08'0 0.0
2017-Oct-13 03:44N 40°38' W 074°08'0 0.0
2017-Oct-13 03:25N 40°38' W 074°08'0 0.0
2017-Oct-13 03:00N 40°38' W 074°08'1 2.2
2017-Oct-13 02:30N 40°39' W 074°09'2 3.1
2017-Oct-13 02:00N 40°41' W 074°09'0 0.9
2017-Oct-13 01:30N 40°41' W 074°09'2 3.6
2017-Oct-13 01:00N 40°39' W 074°09'1 1.7
2017-Oct-13 00:20N 40°38' W 074°08'0 0.0
2017-Oct-12 23:55N 40°38' W 074°08'3 7.5
2017-Oct-12 23:29N 40°38' W 074°12'2 1.1
2017-Oct-12 22:05N 40°36' W 074°12'0 0.0
2017-Oct-12 21:48N 40°36' W 074°12'0 1.3
2017-Oct-12 21:30N 40°37' W 074°12'2 4.3
2017-Oct-12 21:00N 40°39' W 074°11'4 5.7
2017-Oct-12 20:16N 40°39' W 074°05'1 5.6
2017-Oct-12 20:00N 40°39' W 074°04'2 3.4
2017-Oct-12 19:30N 40°37' W 074°03'0 0.2
2017-Oct-12 19:00N 40°37' W 074°03'3 5.3
2017-Oct-12 18:30N 40°39' W 074°05'510.1
2017-Oct-12 17:59N 40°38' W 074°12'1 2.2
2017-Oct-12 17:30N 40°36' W 074°12'0 0.1
2017-Oct-12 16:58N 40°36' W 074°12'3 5.9
2017-Oct-12 16:30N 40°39' W 074°10'2 1.3
2017-Oct-12 14:59N 40°38' W 074°08'0 0.0
2017-Oct-12 14:30N 40°38' W 074°08'0 0.0
2017-Oct-12 14:00N 40°38' W 074°08'0 0.0
2017-Oct-12 13:28N 40°38' W 074°08'0 0.0
2017-Oct-12 12:58N 40°38' W 074°08'0 0.0
2017-Oct-12 12:28N 40°38' W 074°08'0 0.0
2017-Oct-12 11:46N 40°38' W 074°08'2 6.4
2017-Oct-12 11:30N 40°40' W 074°08'1 1.3
2017-Oct-12 11:00N 40°41' W 074°09'1 1.3
2017-Oct-12 10:30N 40°40' W 074°08'2 2.8
2017-Oct-12 09:53N 40°38' W 074°09'2 4.6
2017-Oct-12 09:26N 40°39' W 074°06'2 4.7
2017-Oct-12 09:00N 40°38' W 074°03'1 1.5
2017-Oct-12 08:29N 40°38' W 074°03'3 6.8
2017-Oct-12 08:00N 40°39' W 074°07'1 0.2
2017-Oct-12 04:48N 40°38' W 074°08'0 0.0
2017-Oct-12 04:30N 40°38' W 074°08'0 0.0
2017-Oct-12 04:00N 40°38' W 074°08'0 0.0
2017-Oct-12 03:30N 40°38' W 074°08'0 0.0
2017-Oct-12 03:00N 40°38' W 074°08'0 0.0
2017-Oct-12 02:30N 40°38' W 074°08'0 0.0
2017-Oct-12 01:59N 40°38' W 074°08'0 0.0
2017-Oct-12 01:30N 40°38' W 074°08'0 0.0
2017-Oct-12 00:59N 40°38' W 074°08'0 0.0
2017-Oct-12 00:30N 40°38' W 074°08'0 0.0
2017-Oct-11 23:48N 40°38' W 074°08'0 0.0
2017-Oct-11 23:26N 40°38' W 074°08'0 0.0
2017-Oct-11 23:00N 40°38' W 074°08'0 0.0
2017-Oct-11 22:27N 40°38' W 074°08'0 0.0
2017-Oct-11 21:59N 40°38' W 074°08'0 0.1
2017-Oct-11 21:30N 40°38' W 074°08'0 0.0
2017-Oct-11 20:46N 40°38' W 074°08'0 0.0
2017-Oct-11 20:29N 40°38' W 074°08'0 0.0
2017-Oct-11 20:00N 40°38' W 074°08'0 0.0
2017-Oct-11 19:30N 40°38' W 074°08'0 0.0
2017-Oct-11 18:59N 40°38' W 074°08'0 0.0
2017-Oct-11 18:29N 40°38' W 074°08'0 0.0
2017-Oct-11 18:00N 40°38' W 074°08'0 0.0
2017-Oct-11 17:30N 40°38' W 074°08'0 0.0
2017-Oct-11 16:59N 40°38' W 074°08'0 0.0
2017-Oct-10 23:52N 40°38' W 074°08'1 2.9
2017-Oct-10 23:30N 40°39' W 074°06'611.5
2017-Oct-10 23:00N 40°43' W 074°02'3 6.0
2017-Oct-10 22:30N 40°46' W 074°00'4 7.7
2017-Oct-10 22:00N 40°42' W 074°02'5 9.3
2017-Oct-10 21:30N 40°39' W 074°06'2 3.4
2017-Oct-10 21:00N 40°39' W 074°08'0 0.0
2017-Oct-10 20:29N 40°38' W 074°08'0 0.0
2017-Oct-10 20:00N 40°38' W 074°08'0 0.0
2017-Oct-10 19:30N 40°38' W 074°08'0 0.0
2017-Oct-10 19:00N 40°39' W 074°08'2 3.3
2017-Oct-10 18:29N 40°39' W 074°10'0 0.0
2017-Oct-10 18:00N 40°39' W 074°10'0 0.0
2017-Oct-10 17:26N 40°39' W 074°10'2 4.7
2017-Oct-10 17:00N 40°40' W 074°08'1 2.0
2017-Oct-10 16:30N 40°41' W 074°08'0 0.7
2017-Oct-10 16:00N 40°41' W 074°08'2 4.9
2017-Oct-10 15:30N 40°39' W 074°08'3 7.0
2017-Oct-10 15:00N 40°38' W 074°03'3 1.0
2017-Oct-10 11:42N 40°38' W 074°08'0 0.0
2017-Oct-10 11:09N 40°38' W 074°08'0 0.0
2017-Oct-10 11:00N 40°38' W 074°08'2 4.2
2017-Oct-10 10:30N 40°41' W 074°08'0 0.1
2017-Oct-10 10:00N 40°40' W 074°08'0 0.4
2017-Oct-10 09:31N 40°41' W 074°09'2 4.1
2017-Oct-10 09:00N 40°39' W 074°08'0 0.6
2017-Oct-10 08:28N 40°38' W 074°08'0 0.0
2017-Oct-10 07:55N 40°38' W 074°08'0 0.0
2017-Oct-10 07:25N 40°38' W 074°08'0 0.0
2017-Oct-10 06:58N 40°38' W 074°08'0 0.0
2017-Oct-10 06:25N 40°38' W 074°08'0 0.0
2017-Oct-10 05:31N 40°38' W 074°08'0 0.0
2017-Oct-10 05:25N 40°38' W 074°08'0 0.0
2017-Oct-10 04:40N 40°38' W 074°08'1 4.1
2017-Oct-10 04:29N 40°39' W 074°07'3 5.0
2017-Oct-10 03:59N 40°40' W 074°04'1 1.8
2017-Oct-10 03:30N 40°40' W 074°05'0 0.4
2017-Oct-10 03:00N 40°40' W 074°05'0 0.0
2017-Oct-10 02:30N 40°40' W 074°05'1 2.4
2017-Oct-10 02:00N 40°40' W 074°04'3 4.9
2017-Oct-10 01:19N 40°38' W 074°08'0 0.0
2017-Oct-10 00:07N 40°38' W 074°08'0 0.0
2017-Oct-09 23:49N 40°38' W 074°08'0 0.0
2017-Oct-09 23:25N 40°38' W 074°08'0 0.0
2017-Oct-09 22:03N 40°38' W 074°08'0 1.4
2017-Oct-09 22:01N 40°39' W 074°08'3 4.9
2017-Oct-09 21:30N 40°41' W 074°09'0 0.5
2017-Oct-09 21:00N 40°41' W 074°09'2 4.6
2017-Oct-09 20:31N 40°38' W 074°09'3 5.7
2017-Oct-09 20:01N 40°39' W 074°05'3 6.9
2017-Oct-09 19:30N 40°36' W 074°03'2 3.7
2017-Oct-09 19:00N 40°38' W 074°03'3 5.3
2017-Oct-09 18:22N 40°38' W 074°08'0 0.0
2017-Oct-09 16:28N 40°38' W 074°08'0 0.0
2017-Oct-09 15:58N 40°38' W 074°08'1 2.2
2017-Oct-09 15:30N 40°39' W 074°09'1 1.6
2017-Oct-09 15:00N 40°40' W 074°09'1 2.3
2017-Oct-09 14:30N 40°39' W 074°09'3 5.1
2017-Oct-09 14:00N 40°39' W 074°06'3 5.5
2017-Oct-09 13:30N 40°37' W 074°03'1 2.0
2017-Oct-09 13:00N 40°38' W 074°03'4 8.5
2017-Oct-09 12:30N 40°39' W 074°09'2 4.0
2017-Oct-09 12:00N 40°41' W 074°09'1 1.2
2017-Oct-09 11:30N 40°40' W 074°08'2 3.1
2017-Oct-09 11:00N 40°39' W 074°08'3 6.7
2017-Oct-09 10:30N 40°38' W 074°03'2 4.8
2017-Oct-09 10:00N 40°39' W 074°06'1 2.2
2017-Oct-09 09:30N 40°39' W 074°08'0 0.0
2017-Oct-09 08:57N 40°39' W 074°08'0 0.0
2017-Oct-09 08:21N 40°39' W 074°08'0 0.0
2017-Oct-09 08:00N 40°39' W 074°08'0 0.0
2017-Oct-09 07:30N 40°39' W 074°08'0 0.0
2017-Oct-09 07:00N 40°39' W 074°08'0 0.0
2017-Oct-09 06:28N 40°38' W 074°08'0 0.0
2017-Oct-09 05:58N 40°38' W 074°08'0 0.0
2017-Oct-09 05:29N 40°38' W 074°08'0 0.0
2017-Oct-09 04:58N 40°38' W 074°08'0 0.0
2017-Oct-09 04:28N 40°38' W 074°08'0 0.0
2017-Oct-09 03:58N 40°38' W 074°08'0 0.0
2017-Oct-09 03:28N 40°38' W 074°08'0 0.0
2017-Oct-09 02:58N 40°38' W 074°08'0 0.0
2017-Oct-09 02:28N 40°38' W 074°08'0 0.0
2017-Oct-09 01:58N 40°38' W 074°08'2 5.3
2017-Oct-09 01:30N 40°39' W 074°05'1 2.1
2017-Oct-09 01:00N 40°40' W 074°05'2 3.6
2017-Oct-09 00:29N 40°39' W 074°03'2 4.5
2017-Oct-09 00:00N 40°36' W 074°03'3 6.7
2017-Oct-08 23:30N 40°39' W 074°06'1 1.1
2017-Oct-08 22:21N 40°38' W 074°08'0 0.0
2017-Oct-08 21:54N 40°38' W 074°08'0 0.0
2017-Oct-08 21:27N 40°38' W 074°08'0 0.0
2017-Oct-08 20:51N 40°38' W 074°08'0 0.0
2017-Oct-08 20:30N 40°38' W 074°08'0 0.0
2017-Oct-08 20:00N 40°38' W 074°08'0 0.0
2017-Oct-08 19:10N 40°38' W 074°08'0 0.0
2017-Oct-08 18:55N 40°38' W 074°08'0 0.0
2017-Oct-08 18:25N 40°38' W 074°08'0 0.0
2017-Oct-08 17:55N 40°38' W 074°08'0 0.0
2017-Oct-08 16:02N 40°38' W 074°08'0 0.0
2017-Oct-08 16:01N 40°38' W 074°08'2 3.0
2017-Oct-08 15:30N 40°40' W 074°09'1 1.1
2017-Oct-08 15:00N 40°39' W 074°09'3 6.6
2017-Oct-08 14:30N 40°39' W 074°04'1 1.9
2017-Oct-08 14:00N 40°39' W 074°03'4 8.0
2017-Oct-08 13:30N 40°40' W 074°08'1 2.5
2017-Oct-08 13:00N 40°41' W 074°09'1 2.1
2017-Oct-08 12:30N 40°40' W 074°08'2 3.9
2017-Oct-08 12:00N 40°39' W 074°07'3 6.4
2017-Oct-08 11:30N 40°38' W 074°03'2 3.6
2017-Oct-08 11:00N 40°40' W 074°04'0 0.4
2017-Oct-08 10:30N 40°40' W 074°04'0 0.0
2017-Oct-08 10:00N 40°40' W 074°04'1 2.0
2017-Oct-08 09:30N 40°39' W 074°05'3 6.1
2017-Oct-08 09:01N 40°39' W 074°09'1 2.3
2017-Oct-08 08:30N 40°40' W 074°09'0 0.1
2017-Oct-08 08:01N 40°40' W 074°09'1 2.8
2017-Oct-08 07:30N 40°38' W 074°08'0 0.0
2017-Oct-08 07:00N 40°38' W 074°08'0 0.0
2017-Oct-08 06:30N 40°38' W 074°08'0 0.0
2017-Oct-08 06:00N 40°38' W 074°08'0 0.0
2017-Oct-08 05:30N 40°38' W 074°08'0 0.0
2017-Oct-08 04:54N 40°38' W 074°08'0 0.0
2017-Oct-08 04:30N 40°38' W 074°08'0 0.0
2017-Oct-08 04:00N 40°38' W 074°08'0 0.0
2017-Oct-08 03:30N 40°38' W 074°08'0 0.0
2017-Oct-08 03:00N 40°38' W 074°08'0 0.0
2017-Oct-08 02:30N 40°38' W 074°08'0 0.0
2017-Oct-08 02:00N 40°38' W 074°08'0 0.0
2017-Oct-08 01:12N 40°38' W 074°08'0 0.0
2017-Oct-08 01:00N 40°38' W 074°08'0 0.0
2017-Oct-08 00:24N 40°38' W 074°08'0 0.5
2017-Oct-08 00:00N 40°39' W 074°08'2 3.3
2017-Oct-07 23:30N 40°40' W 074°08'0 0.7
2017-Oct-07 23:00N 40°40' W 074°09'0 0.0
2017-Oct-07 22:30N 40°40' W 074°09'0 0.0
2017-Oct-07 22:00N 40°40' W 074°09'1 2.7
2017-Oct-07 21:30N 40°39' W 074°08'4 7.2
2017-Oct-07 20:59N 40°38' W 074°04'1 2.6
2017-Oct-07 20:30N 40°39' W 074°04'2 4.2
2017-Oct-07 20:00N 40°39' W 074°07'0 0.0
2017-Oct-07 19:30N 40°39' W 074°07'1 1.9
2017-Oct-07 19:00N 40°38' W 074°08'0 0.0
2017-Oct-07 18:30N 40°38' W 074°08'1 2.2
2017-Oct-07 18:00N 40°39' W 074°09'4 1.7
2017-Oct-07 15:38N 40°35' W 074°12'1 9.6
2017-Oct-07 15:31N 40°37' W 074°12'4 7.4
2017-Oct-07 15:00N 40°38' W 074°08'0 0.0
2017-Oct-07 14:30N 40°38' W 074°08'0 0.0
2017-Oct-07 13:59N 40°38' W 074°08'1 2.0
2017-Oct-07 13:28N 40°39' W 074°07'510.0
2017-Oct-07 13:00N 40°42' W 074°02'5 9.4
2017-Oct-07 12:30N 40°46' W 073°60'0 0.0
2017-Oct-07 12:00N 40°46' W 073°60'0 0.1
2017-Oct-07 11:30N 40°46' W 074°00'0 0.1
2017-Oct-07 11:00N 40°46' W 074°00'1 2.7
2017-Oct-07 10:30N 40°45' W 074°01'  
Track history (hours):
 
Tides and Currents Weather Stations Pressure Air Temp Water Temp Dewpoint Dewpoint Depression Visibility Wind Speed Wind Dir Waves Ship Positions

Jrt Moran

Owner: Moran Towing Corporation, New Canaan, CT. More information available from US FCC via Universal Licensing System and Coast Guard Vessel Documentation Center.

Last reported at 2017-Oct-17 10:01 UTC. Time now 2017-Oct-17 10:09 UTC.
Position N 40°36' W 074°03'.

Length 28 m; draft 4.6 m.

Type: Tug. MMSI: 338073000.

Date/timePositionNaut miles runAvg speedWind from/ knotsBaromVisibWave heightAir tempDewpointWater temp
2017-Oct-17 10:01N 40°36' W 074°03'3 6.8
2017-Oct-17 09:30N 40°39' W 074°06'1 2.7
2017-Oct-17 08:59N 40°38' W 074°08'0 0.0
2017-Oct-17 08:29N 40°38' W 074°08'0 0.0
2017-Oct-17 07:59N 40°38' W 074°08'0 0.0
2017-Oct-17 07:29N 40°38' W 074°08'0 0.0
2017-Oct-17 06:59N 40°38' W 074°08'0 0.0
2017-Oct-17 06:17N 40°38' W 074°08'0 0.0
2017-Oct-17 05:59N 40°38' W 074°08'0 0.0
2017-Oct-17 05:29N 40°38' W 074°08'0 0.0
2017-Oct-17 04:59N 40°38' W 074°08'0 0.0
2017-Oct-17 04:29N 40°38' W 074°08'0 0.0
2017-Oct-17 03:59N 40°38' W 074°08'0 0.0
2017-Oct-17 03:14N 40°38' W 074°08'0 0.0
2017-Oct-17 02:59N 40°38' W 074°08'0 0.0
2017-Oct-17 02:29N 40°38' W 074°08'0 0.0
2017-Oct-17 01:59N 40°38' W 074°08'0 0.0
2017-Oct-17 01:23N 40°38' W 074°08'0 0.0
2017-Oct-17 00:59N 40°38' W 074°08'0 0.0
2017-Oct-17 00:30N 40°38' W 074°08'1 0.4
2017-Oct-16 22:14N 40°39' W 074°07'1 3.9
2017-Oct-16 21:59N 40°38' W 074°08'0 0.0
2017-Oct-16 21:23N 40°38' W 074°08'0 0.0
2017-Oct-16 20:59N 40°38' W 074°08'0 0.0
2017-Oct-16 18:05N 40°38' W 074°08'0 0.0
2017-Oct-16 17:44N 40°38' W 074°08'0 1.3
2017-Oct-16 17:30N 40°39' W 074°08'1 2.8
2017-Oct-16 17:00N 40°40' W 074°09'1 1.0
2017-Oct-16 16:30N 40°39' W 074°09'2 3.5
2017-Oct-16 16:00N 40°39' W 074°06'2 5.0
2017-Oct-16 15:31N 40°38' W 074°03'2 4.5
2017-Oct-16 15:00N 40°36' W 074°03'4 4.4
2017-Oct-16 13:59N 40°38' W 074°08'0 0.0
2017-Oct-16 13:29N 40°38' W 074°08'0 0.0
2017-Oct-16 12:59N 40°39' W 074°08'1 1.5
2017-Oct-16 12:30N 40°39' W 074°09'2 4.9
2017-Oct-16 12:00N 40°41' W 074°09'1 1.6
2017-Oct-16 11:30N 40°40' W 074°08'2 3.4
2017-Oct-16 10:59N 40°39' W 074°08'2 5.1
2017-Oct-16 10:30N 40°39' W 074°05'3 6.3
2017-Oct-16 10:00N 40°36' W 074°02'3 5.4
2017-Oct-16 09:30N 40°39' W 074°03'1 2.4
2017-Oct-16 09:00N 40°40' W 074°04'0 0.0
2017-Oct-16 08:30N 40°40' W 074°04'0 0.0
2017-Oct-16 08:00N 40°40' W 074°04'0 0.0
2017-Oct-16 07:30N 40°40' W 074°04'0 0.0
2017-Oct-16 07:00N 40°40' W 074°04'0 0.0
2017-Oct-16 06:30N 40°40' W 074°04'0 0.0
2017-Oct-16 06:00N 40°40' W 074°04'0 0.0
2017-Oct-16 05:30N 40°40' W 074°04'0 0.0
2017-Oct-16 05:00N 40°40' W 074°04'1 1.7
2017-Oct-16 04:30N 40°40' W 074°03'713.0
2017-Oct-16 04:00N 40°46' W 074°00'0 0.2
2017-Oct-16 03:30N 40°46' W 074°00'0 0.1
2017-Oct-16 03:00N 40°46' W 073°60'0 0.2
2017-Oct-16 02:30N 40°46' W 073°60'1 1.2
2017-Oct-16 02:00N 40°46' W 074°01'612.0
2017-Oct-16 01:30N 40°40' W 074°03'4 1.0
2017-Oct-15 21:40N 40°38' W 074°08'0 1.6
2017-Oct-15 21:30N 40°39' W 074°08'2 4.3
2017-Oct-15 21:00N 40°41' W 074°09'1 1.3
2017-Oct-15 20:30N 40°40' W 074°08'2 1.1
2017-Oct-15 19:05N 40°38' W 074°08'0 0.0
2017-Oct-15 18:59N 40°38' W 074°08'0 0.0
2017-Oct-15 18:14N 40°38' W 074°08'0 0.0
2017-Oct-15 17:50N 40°38' W 074°08'0 0.0
2017-Oct-15 16:17N 40°38' W 074°08'0 0.0
2017-Oct-15 15:44N 40°38' W 074°08'0 0.0
2017-Oct-15 15:29N 40°38' W 074°08'0 0.0
2017-Oct-15 14:59N 40°38' W 074°08'0 0.0
2017-Oct-15 13:59N 40°38' W 074°08'0 0.0
2017-Oct-15 13:29N 40°38' W 074°08'0 0.0
2017-Oct-15 12:59N 40°38' W 074°08'0 0.0
2017-Oct-15 12:29N 40°38' W 074°08'2 3.7
2017-Oct-15 12:01N 40°39' W 074°06'2 4.6
2017-Oct-15 11:30N 40°39' W 074°09'2 3.9
2017-Oct-15 11:00N 40°40' W 074°08'0 0.8
2017-Oct-15 10:30N 40°41' W 074°09'0 0.0
2017-Oct-15 10:00N 40°41' W 074°09'2 3.2
2017-Oct-15 09:30N 40°39' W 074°09'1 2.1
2017-Oct-15 09:00N 40°38' W 074°08'0 0.0
2017-Oct-15 08:28N 40°38' W 074°08'0 0.0
2017-Oct-15 07:57N 40°38' W 074°08'0 0.0
2017-Oct-15 07:31N 40°38' W 074°08'0 0.0
2017-Oct-15 06:57N 40°38' W 074°08'0 0.0
2017-Oct-15 06:31N 40°38' W 074°08'0 0.0
2017-Oct-15 06:00N 40°38' W 074°08'0 0.0
2017-Oct-15 05:30N 40°38' W 074°08'0 0.0
2017-Oct-15 05:00N 40°38' W 074°08'1 2.0
2017-Oct-15 04:30N 40°39' W 074°07'2 3.7
2017-Oct-15 04:00N 40°39' W 074°09'1 1.4
2017-Oct-15 03:30N 40°40' W 074°09'0 0.1
2017-Oct-15 03:00N 40°40' W 074°09'0 0.1
2017-Oct-15 02:30N 40°40' W 074°09'0 0.0
2017-Oct-15 02:00N 40°40' W 074°09'1 2.8
2017-Oct-15 01:29N 40°38' W 074°08'0 0.0
2017-Oct-14 23:49N 40°38' W 074°08'1 2.5
2017-Oct-14 23:30N 40°39' W 074°07'1 2.5
2017-Oct-14 23:00N 40°39' W 074°05'3 5.4
2017-Oct-14 22:30N 40°38' W 074°09'2 4.0
2017-Oct-14 22:00N 40°40' W 074°08'1 1.4
2017-Oct-14 21:30N 40°41' W 074°09'0 0.1
2017-Oct-14 21:00N 40°41' W 074°09'0 0.0
2017-Oct-14 20:31N 40°41' W 074°09'2 3.6
2017-Oct-14 20:00N 40°39' W 074°09'1 2.0
2017-Oct-14 19:29N 40°38' W 074°08'0 0.0
2017-Oct-14 18:59N 40°38' W 074°08'0 0.0
2017-Oct-14 18:26N 40°38' W 074°08'0 0.0
2017-Oct-14 17:56N 40°38' W 074°08'0 0.0
2017-Oct-14 17:29N 40°38' W 074°08'0 0.0
2017-Oct-14 17:00N 40°38' W 074°08'4 8.7
2017-Oct-14 16:30N 40°41' W 074°03'612.0
2017-Oct-14 16:00N 40°46' W 074°00'0 0.8
2017-Oct-14 15:30N 40°46' W 073°60'0 0.3
2017-Oct-14 15:00N 40°46' W 073°60'0 0.3
2017-Oct-14 14:30N 40°46' W 073°60'0 0.0
2017-Oct-14 14:00N 40°46' W 073°60'0 0.0
2017-Oct-14 13:30N 40°46' W 073°60'0 0.1
2017-Oct-14 13:00N 40°46' W 073°60'0 0.1
2017-Oct-14 12:30N 40°46' W 073°60'0 0.0
2017-Oct-14 12:00N 40°46' W 073°60'0 0.3
2017-Oct-14 11:30N 40°46' W 074°00'0 0.4
2017-Oct-14 11:00N 40°46' W 074°00'1 2.4
2017-Oct-14 10:30N 40°45' W 074°01'1 2.5
2017-Oct-14 10:00N 40°46' W 074°00'1 2.0
2017-Oct-14 09:30N 40°45' W 074°01'1 1.7
2017-Oct-14 09:00N 40°44' W 074°01'4 7.4
2017-Oct-14 08:30N 40°41' W 074°02'4 8.2
2017-Oct-14 08:01N 40°39' W 074°07'2 3.0
2017-Oct-14 07:29N 40°40' W 074°09'0 0.4
2017-Oct-14 07:00N 40°40' W 074°09'1 2.3
2017-Oct-14 06:28N 40°39' W 074°08'0 0.8
2017-Oct-14 05:58N 40°38' W 074°08'0 0.0
2017-Oct-14 05:28N 40°38' W 074°08'0 0.0
2017-Oct-14 04:58N 40°38' W 074°08'0 0.0
2017-Oct-14 04:25N 40°38' W 074°08'0 0.0
2017-Oct-14 03:58N 40°38' W 074°08'0 0.0
2017-Oct-14 03:28N 40°38' W 074°08'0 0.0
2017-Oct-14 02:55N 40°38' W 074°08'0 0.0
2017-Oct-14 02:28N 40°38' W 074°08'0 0.0
2017-Oct-14 01:58N 40°38' W 074°08'0 0.0
2017-Oct-14 01:28N 40°38' W 074°08'0 0.0
2017-Oct-14 00:58N 40°38' W 074°08'0 0.0
2017-Oct-14 00:28N 40°38' W 074°08'0 0.0
2017-Oct-13 23:40N 40°38' W 074°08'0 0.0
2017-Oct-13 23:22N 40°38' W 074°08'0 0.0
2017-Oct-13 22:58N 40°38' W 074°08'0 0.0
2017-Oct-13 22:25N 40°38' W 074°08'0 0.0
2017-Oct-13 21:52N 40°38' W 074°08'0 0.0
2017-Oct-13 21:25N 40°38' W 074°08'0 0.0
2017-Oct-13 20:55N 40°38' W 074°08'0 0.0
2017-Oct-13 20:25N 40°38' W 074°08'0 0.0
2017-Oct-13 19:58N 40°38' W 074°08'0 0.0
2017-Oct-13 19:25N 40°38' W 074°08'0 0.0
2017-Oct-13 18:55N 40°38' W 074°08'0 0.0
2017-Oct-13 18:28N 40°38' W 074°08'0 0.0
2017-Oct-13 17:58N 40°38' W 074°08'2 4.0
2017-Oct-13 17:30N 40°39' W 074°05'3 5.0
2017-Oct-13 17:00N 40°39' W 074°09'2 4.0
2017-Oct-13 16:30N 40°40' W 074°08'1 1.5
2017-Oct-13 16:00N 40°41' W 074°09'0 0.3
2017-Oct-13 15:30N 40°41' W 074°09'1 2.6
2017-Oct-13 15:00N 40°40' W 074°08'1 2.8
2017-Oct-13 14:30N 40°39' W 074°08'2 5.1
2017-Oct-13 14:00N 40°39' W 074°04'3 6.2
2017-Oct-13 13:30N 40°36' W 074°03'1 2.8
2017-Oct-13 13:00N 40°38' W 074°03'4 7.2
2017-Oct-13 12:29N 40°38' W 074°08'0 0.0
2017-Oct-13 12:00N 40°38' W 074°08'2 4.6
2017-Oct-13 11:30N 40°41' W 074°09'0 0.6
2017-Oct-13 11:00N 40°41' W 074°09'1 2.5
2017-Oct-13 10:30N 40°40' W 074°09'1 2.4
2017-Oct-13 10:00N 40°39' W 074°08'2 4.7
2017-Oct-13 09:30N 40°39' W 074°05'2 4.3
2017-Oct-13 09:00N 40°37' W 074°03'1 2.1
2017-Oct-13 08:30N 40°36' W 074°03'4 7.3
2017-Oct-13 08:00N 40°39' W 074°06'1 1.5
2017-Oct-13 07:16N 40°38' W 074°08'0 0.0
2017-Oct-13 06:46N 40°38' W 074°08'0 0.0
2017-Oct-13 06:24N 40°38' W 074°08'0 0.0
2017-Oct-13 03:44N 40°38' W 074°08'0 0.0
2017-Oct-13 03:25N 40°38' W 074°08'0 0.0
2017-Oct-13 03:00N 40°38' W 074°08'1 2.2
2017-Oct-13 02:30N 40°39' W 074°09'2 3.1
2017-Oct-13 02:00N 40°41' W 074°09'0 0.9
2017-Oct-13 01:30N 40°41' W 074°09'2 3.6
2017-Oct-13 01:00N 40°39' W 074°09'1 1.7
2017-Oct-13 00:20N 40°38' W 074°08'0 0.0
2017-Oct-12 23:55N 40°38' W 074°08'3 7.5
2017-Oct-12 23:29N 40°38' W 074°12'2 1.1
2017-Oct-12 22:05N 40°36' W 074°12'0 0.0
2017-Oct-12 21:48N 40°36' W 074°12'0 1.3
2017-Oct-12 21:30N 40°37' W 074°12'2 4.3
2017-Oct-12 21:00N 40°39' W 074°11'4 5.7
2017-Oct-12 20:16N 40°39' W 074°05'1 5.6
2017-Oct-12 20:00N 40°39' W 074°04'2 3.4
2017-Oct-12 19:30N 40°37' W 074°03'0 0.2
2017-Oct-12 19:00N 40°37' W 074°03'3 5.3
2017-Oct-12 18:30N 40°39' W 074°05'510.1
2017-Oct-12 17:59N 40°38' W 074°12'1 2.2
2017-Oct-12 17:30N 40°36' W 074°12'0 0.1
2017-Oct-12 16:58N 40°36' W 074°12'3 5.9
2017-Oct-12 16:30N 40°39' W 074°10'2 1.3
2017-Oct-12 14:59N 40°38' W 074°08'0 0.0
2017-Oct-12 14:30N 40°38' W 074°08'0 0.0
2017-Oct-12 14:00N 40°38' W 074°08'0 0.0
2017-Oct-12 13:28N 40°38' W 074°08'0 0.0
2017-Oct-12 12:58N 40°38' W 074°08'0 0.0
2017-Oct-12 12:28N 40°38' W 074°08'0 0.0
2017-Oct-12 11:46N 40°38' W 074°08'2 6.4
2017-Oct-12 11:30N 40°40' W 074°08'1 1.3
2017-Oct-12 11:00N 40°41' W 074°09'1 1.3
2017-Oct-12 10:30N 40°40' W 074°08'2 2.8
2017-Oct-12 09:53N 40°38' W 074°09'2 4.6
2017-Oct-12 09:26N 40°39' W 074°06'2 4.7
2017-Oct-12 09:00N 40°38' W 074°03'1 1.5
2017-Oct-12 08:29N 40°38' W 074°03'3 6.8
2017-Oct-12 08:00N 40°39' W 074°07'1 0.2
2017-Oct-12 04:48N 40°38' W 074°08'0 0.0
2017-Oct-12 04:30N 40°38' W 074°08'0 0.0
2017-Oct-12 04:00N 40°38' W 074°08'0 0.0
2017-Oct-12 03:30N 40°38' W 074°08'0 0.0
2017-Oct-12 03:00N 40°38' W 074°08'0 0.0
2017-Oct-12 02:30N 40°38' W 074°08'0 0.0
2017-Oct-12 01:59N 40°38' W 074°08'0 0.0
2017-Oct-12 01:30N 40°38' W 074°08'0 0.0
2017-Oct-12 00:59N 40°38' W 074°08'0 0.0
2017-Oct-12 00:30N 40°38' W 074°08'0 0.0
2017-Oct-11 23:48N 40°38' W 074°08'0 0.0
2017-Oct-11 23:26N 40°38' W 074°08'0 0.0
2017-Oct-11 23:00N 40°38' W 074°08'0 0.0
2017-Oct-11 22:27N 40°38' W 074°08'0 0.0
2017-Oct-11 21:59N 40°38' W 074°08'0 0.1
2017-Oct-11 21:30N 40°38' W 074°08'0 0.0
2017-Oct-11 20:46N 40°38' W 074°08'0 0.0
2017-Oct-11 20:29N 40°38' W 074°08'0 0.0
2017-Oct-11 20:00N 40°38' W 074°08'0 0.0
2017-Oct-11 19:30N 40°38' W 074°08'0 0.0
2017-Oct-11 18:59N 40°38' W 074°08'0 0.0
2017-Oct-11 18:29N 40°38' W 074°08'0 0.0
2017-Oct-11 18:00N 40°38' W 074°08'0 0.0
2017-Oct-11 17:30N 40°38' W 074°08'0 0.0
2017-Oct-11 16:59N 40°38' W 074°08'0 0.0
2017-Oct-10 23:52N 40°38' W 074°08'1 2.9
2017-Oct-10 23:30N 40°39' W 074°06'611.5
2017-Oct-10 23:00N 40°43' W 074°02'3 6.0
2017-Oct-10 22:30N 40°46' W 074°00'4 7.7
2017-Oct-10 22:00N 40°42' W 074°02'5 9.3
2017-Oct-10 21:30N 40°39' W 074°06'2 3.4
2017-Oct-10 21:00N 40°39' W 074°08'0 0.0
2017-Oct-10 20:29N 40°38' W 074°08'0 0.0
2017-Oct-10 20:00N 40°38' W 074°08'0 0.0
2017-Oct-10 19:30N 40°38' W 074°08'0 0.0
2017-Oct-10 19:00N 40°39' W 074°08'2 3.3
2017-Oct-10 18:29N 40°39' W 074°10'0 0.0
2017-Oct-10 18:00N 40°39' W 074°10'0 0.0
2017-Oct-10 17:26N 40°39' W 074°10'2 4.7
2017-Oct-10 17:00N 40°40' W 074°08'1 2.0
2017-Oct-10 16:30N 40°41' W 074°08'0 0.7
2017-Oct-10 16:00N 40°41' W 074°08'2 4.9
2017-Oct-10 15:30N 40°39' W 074°08'3 7.0
2017-Oct-10 15:00N 40°38' W 074°03'3 1.0
2017-Oct-10 11:42N 40°38' W 074°08'0 0.0
2017-Oct-10 11:09N 40°38' W 074°08'0 0.0
2017-Oct-10 11:00N 40°38' W 074°08'2 4.2
2017-Oct-10 10:30N 40°41' W 074°08'0 0.1
2017-Oct-10 10:00N 40°40' W 074°08'0 0.4
2017-Oct-10 09:31N 40°41' W 074°09'2 4.1
2017-Oct-10 09:00N 40°39' W 074°08'0 0.6
2017-Oct-10 08:28N 40°38' W 074°08'0 0.0
2017-Oct-10 07:55N 40°38' W 074°08'0 0.0
2017-Oct-10 07:25N 40°38' W 074°08'0 0.0
2017-Oct-10 06:58N 40°38' W 074°08'0 0.0
2017-Oct-10 06:25N 40°38' W 074°08'0 0.0
2017-Oct-10 05:31N 40°38' W 074°08'0 0.0
2017-Oct-10 05:25N 40°38' W 074°08'0 0.0
2017-Oct-10 04:40N 40°38' W 074°08'1 4.1
2017-Oct-10 04:29N 40°39' W 074°07'3 5.0
2017-Oct-10 03:59N 40°40' W 074°04'1 1.8
2017-Oct-10 03:30N 40°40' W 074°05'0 0.4
2017-Oct-10 03:00N 40°40' W 074°05'0 0.0
2017-Oct-10 02:30N 40°40' W 074°05'1 2.4
2017-Oct-10 02:00N 40°40' W 074°04'3 4.9
2017-Oct-10 01:19N 40°38' W 074°08'0 0.0
2017-Oct-10 00:07N 40°38' W 074°08'0 0.0
2017-Oct-09 23:49N 40°38' W 074°08'0 0.0
2017-Oct-09 23:25N 40°38' W 074°08'0 0.0
2017-Oct-09 22:03N 40°38' W 074°08'0 1.4
2017-Oct-09 22:01N 40°39' W 074°08'3 4.9
2017-Oct-09 21:30N 40°41' W 074°09'0 0.5
2017-Oct-09 21:00N 40°41' W 074°09'2 4.6
2017-Oct-09 20:31N 40°38' W 074°09'3 5.7
2017-Oct-09 20:01N 40°39' W 074°05'3 6.9
2017-Oct-09 19:30N 40°36' W 074°03'2 3.7
2017-Oct-09 19:00N 40°38' W 074°03'3 5.3
2017-Oct-09 18:22N 40°38' W 074°08'0 0.0
2017-Oct-09 16:28N 40°38' W 074°08'0 0.0
2017-Oct-09 15:58N 40°38' W 074°08'1 2.2
2017-Oct-09 15:30N 40°39' W 074°09'1 1.6
2017-Oct-09 15:00N 40°40' W 074°09'1 2.3
2017-Oct-09 14:30N 40°39' W 074°09'3 5.1
2017-Oct-09 14:00N 40°39' W 074°06'3 5.5
2017-Oct-09 13:30N 40°37' W 074°03'1 2.0
2017-Oct-09 13:00N 40°38' W 074°03'4 8.5
2017-Oct-09 12:30N 40°39' W 074°09'2 4.0
2017-Oct-09 12:00N 40°41' W 074°09'1 1.2
2017-Oct-09 11:30N 40°40' W 074°08'2 3.1
2017-Oct-09 11:00N 40°39' W 074°08'3 6.7
2017-Oct-09 10:30N 40°38' W 074°03'2 4.8
2017-Oct-09 10:00N 40°39' W 074°06'1 2.2
2017-Oct-09 09:30N 40°39' W 074°08'0 0.0
2017-Oct-09 08:57N 40°39' W 074°08'0 0.0
2017-Oct-09 08:21N 40°39' W 074°08'0 0.0
2017-Oct-09 08:00N 40°39' W 074°08'0 0.0
2017-Oct-09 07:30N 40°39' W 074°08'0 0.0
2017-Oct-09 07:00N 40°39' W 074°08'0 0.0
2017-Oct-09 06:28N 40°38' W 074°08'0 0.0
2017-Oct-09 05:58N 40°38' W 074°08'0 0.0
2017-Oct-09 05:29N 40°38' W 074°08'0 0.0
2017-Oct-09 04:58N 40°38' W 074°08'0 0.0
2017-Oct-09 04:28N 40°38' W 074°08'0 0.0
2017-Oct-09 03:58N 40°38' W 074°08'0 0.0
2017-Oct-09 03:28N 40°38' W 074°08'0 0.0
2017-Oct-09 02:58N 40°38' W 074°08'0 0.0
2017-Oct-09 02:28N 40°38' W 074°08'0 0.0
2017-Oct-09 01:58N 40°38' W 074°08'2 5.3
2017-Oct-09 01:30N 40°39' W 074°05'1 2.1
2017-Oct-09 01:00N 40°40' W 074°05'2 3.6
2017-Oct-09 00:29N 40°39' W 074°03'2 4.5
2017-Oct-09 00:00N 40°36' W 074°03'3 6.7
2017-Oct-08 23:30N 40°39' W 074°06'1 1.1
2017-Oct-08 22:21N 40°38' W 074°08'0 0.0
2017-Oct-08 21:54N 40°38' W 074°08'0 0.0
2017-Oct-08 21:27N 40°38' W 074°08'0 0.0
2017-Oct-08 20:51N 40°38' W 074°08'0 0.0
2017-Oct-08 20:30N 40°38' W 074°08'0 0.0
2017-Oct-08 20:00N 40°38' W 074°08'0 0.0
2017-Oct-08 19:10N 40°38' W 074°08'0 0.0
2017-Oct-08 18:55N 40°38' W 074°08'0 0.0
2017-Oct-08 18:25N 40°38' W 074°08'0 0.0
2017-Oct-08 17:55N 40°38' W 074°08'0 0.0
2017-Oct-08 16:02N 40°38' W 074°08'0 0.0
2017-Oct-08 16:01N 40°38' W 074°08'2 3.0
2017-Oct-08 15:30N 40°40' W 074°09'1 1.1
2017-Oct-08 15:00N 40°39' W 074°09'3 6.6
2017-Oct-08 14:30N 40°39' W 074°04'1 1.9
2017-Oct-08 14:00N 40°39' W 074°03'4 8.0
2017-Oct-08 13:30N 40°40' W 074°08'1 2.5
2017-Oct-08 13:00N 40°41' W 074°09'1 2.1
2017-Oct-08 12:30N 40°40' W 074°08'2 3.9
2017-Oct-08 12:00N 40°39' W 074°07'3 6.4
2017-Oct-08 11:30N 40°38' W 074°03'2 3.6
2017-Oct-08 11:00N 40°40' W 074°04'0 0.4
2017-Oct-08 10:30N 40°40' W 074°04'0 0.0
2017-Oct-08 10:00N 40°40' W 074°04'1 2.0
2017-Oct-08 09:30N 40°39' W 074°05'3 6.1
2017-Oct-08 09:01N 40°39' W 074°09'1 2.3
2017-Oct-08 08:30N 40°40' W 074°09'0 0.1
2017-Oct-08 08:01N 40°40' W 074°09'1 2.8
2017-Oct-08 07:30N 40°38' W 074°08'0 0.0
2017-Oct-08 07:00N 40°38' W 074°08'0 0.0
2017-Oct-08 06:30N 40°38' W 074°08'0 0.0
2017-Oct-08 06:00N 40°38' W 074°08'0 0.0
2017-Oct-08 05:30N 40°38' W 074°08'0 0.0
2017-Oct-08 04:54N 40°38' W 074°08'0 0.0
2017-Oct-08 04:30N 40°38' W 074°08'0 0.0
2017-Oct-08 04:00N 40°38' W 074°08'0 0.0
2017-Oct-08 03:30N 40°38' W 074°08'0 0.0
2017-Oct-08 03:00N 40°38' W 074°08'0 0.0
2017-Oct-08 02:30N 40°38' W 074°08'0 0.0
2017-Oct-08 02:00N 40°38' W 074°08'0 0.0
2017-Oct-08 01:12N 40°38' W 074°08'0 0.0
2017-Oct-08 01:00N 40°38' W 074°08'0 0.0
2017-Oct-08 00:24N 40°38' W 074°08'0 0.5
2017-Oct-08 00:00N 40°39' W 074°08'2 3.3
2017-Oct-07 23:30N 40°40' W 074°08'0 0.7
2017-Oct-07 23:00N 40°40' W 074°09'0 0.0
2017-Oct-07 22:30N 40°40' W 074°09'0 0.0
2017-Oct-07 22:00N 40°40' W 074°09'1 2.7
2017-Oct-07 21:30N 40°39' W 074°08'4 7.2
2017-Oct-07 20:59N 40°38' W 074°04'1 2.6
2017-Oct-07 20:30N 40°39' W 074°04'2 4.2
2017-Oct-07 20:00N 40°39' W 074°07'0 0.0
2017-Oct-07 19:30N 40°39' W 074°07'1 1.9
2017-Oct-07 19:00N 40°38' W 074°08'0 0.0
2017-Oct-07 18:30N 40°38' W 074°08'1 2.2
2017-Oct-07 18:00N 40°39' W 074°09'4 1.7
2017-Oct-07 15:38N 40°35' W 074°12'1 9.6
2017-Oct-07 15:31N 40°37' W 074°12'4 7.4
2017-Oct-07 15:00N 40°38' W 074°08'0 0.0
2017-Oct-07 14:30N 40°38' W 074°08'0 0.0
2017-Oct-07 13:59N 40°38' W 074°08'1 2.0
2017-Oct-07 13:28N 40°39' W 074°07'510.0
2017-Oct-07 13:00N 40°42' W 074°02'5 9.4
2017-Oct-07 12:30N 40°46' W 073°60'0 0.0
2017-Oct-07 12:00N 40°46' W 073°60'0 0.1
2017-Oct-07 11:30N 40°46' W 074°00'0 0.1
2017-Oct-07 11:00N 40°46' W 074°00'1 2.7
2017-Oct-07 10:30N 40°45' W 074°01'  

Dump ship's entire track history